Minco, Oklahoma
Current Conditions -  °F | °C
As of 10:15 AM on Saturday 25 Oct 2014 (Local Time) from KRCE Reporting Station
Clear Clear  
Wind Chill: 68°   Ceiling: Unl
Heat Index: 68°   Visibility: NA
Dew Point: 61°   Wind: 9mph
Humidity: 78%   Direction: 210°SSW
Pressure: 30.12"   Gusts: NA
Location:  35.31°N, 97.94°W
Report Text: KRCE 251515Z AUTO 21008KT CLR 20/16 A3012 RMK AO2
Loading
Personal Weather Stations






























Interactive Weather Map
Tropical Storm Tracking
New forecast layout! Learn more

10-Day Weather Forecast

Advertisements
Track Severe Weather on mobile